sensor_id;sensor_type;location;lat;lon;timestamp;pressure;altitude;pressure_sealevel;temperature;humidity
74310;BME280;62722;51.142;17.052;2022-09-17T00:01:18;99312.25;;;10.61;78.43
74310;BME280;62722;51.142;17.052;2022-09-17T00:03:48;99310.34;;;10.63;78.13
74310;BME280;62722;51.142;17.052;2022-09-17T00:06:17;99301.31;;;10.66;78.40
74310;BME280;62722;51.142;17.052;2022-09-17T00:08:44;99303.97;;;10.66;78.03
74310;BME280;62722;51.142;17.052;2022-09-17T00:11:13;99301.31;;;10.66;77.62
74310;BME280;62722;51.142;17.052;2022-09-17T00:13:40;99287.44;;;10.64;77.09
74310;BME280;62722;51.142;17.052;2022-09-17T00:16:10;99296.75;;;10.68;77.64
74310;BME280;62722;51.142;17.052;2022-09-17T00:18:39;99287.28;;;10.65;77.59
74310;BME280;62722;51.142;17.052;2022-09-17T00:21:14;99296.75;;;10.68;77.20
74310;BME280;62722;51.142;17.052;2022-09-17T00:23:43;99296.75;;;10.68;77.89
74310;BME280;62722;51.142;17.052;2022-09-17T00:26:12;99287.88;;;10.69;76.87
74310;BME280;62722;51.142;17.052;2022-09-17T00:28:39;99294.00;;;10.69;77.09
74310;BME280;62722;51.142;17.052;2022-09-17T00:31:11;99295.78;;;10.69;79.24
74310;BME280;62722;51.142;17.052;2022-09-17T00:33:38;99284.66;;;10.65;78.82
74310;BME280;62722;51.142;17.052;2022-09-17T00:36:06;99290.88;;;10.64;77.27
74310;BME280;62722;51.142;17.052;2022-09-17T00:38:33;99283.94;;;10.63;77.98
74310;BME280;62722;51.142;17.052;2022-09-17T00:41:01;99283.94;;;10.63;76.41
74310;BME280;62722;51.142;17.052;2022-09-17T00:43:33;99284.28;;;10.70;75.95
74310;BME280;62722;51.142;17.052;2022-09-17T00:46:02;99278.16;;;10.69;77.35
74310;BME280;62722;51.142;17.052;2022-09-17T00:48:31;99286.56;;;10.74;76.20
74310;BME280;62722;51.142;17.052;2022-09-17T00:51:00;99284.75;;;10.75;74.97
74310;BME280;62722;51.142;17.052;2022-09-17T00:53:29;99285.44;;;10.77;76.30
74310;BME280;62722;51.142;17.052;2022-09-17T00:56:02;99288.19;;;10.75;75.76
74310;BME280;62722;51.142;17.052;2022-09-17T00:58:31;99287.13;;;10.78;75.22
74310;BME280;62722;51.142;17.052;2022-09-17T01:00:59;99288.19;;;10.75;75.10
74310;BME280;62722;51.142;17.052;2022-09-17T01:03:26;99272.63;;;10.72;75.28
74310;BME280;62722;51.142;17.052;2022-09-17T01:06:00;99276.44;;;10.80;74.22
74310;BME280;62722;51.142;17.052;2022-09-17T01:08:39;99280.50;;;10.84;74.40
74310;BME280;62722;51.142;17.052;2022-09-17T01:11:24;99280.38;;;10.85;75.08
74310;BME280;62722;51.142;17.052;2022-09-17T01:14:06;99281.22;;;10.86;74.35
74310;BME280;62722;51.142;17.052;2022-09-17T01:16:42;99276.66;;;10.88;74.82
74310;BME280;62722;51.142;17.052;2022-09-17T01:19:30;99279.28;;;10.88;74.07
74310;BME280;62722;51.142;17.052;2022-09-17T01:22:06;99267.31;;;10.84;74.46
74310;BME280;62722;51.142;17.052;2022-09-17T01:25:07;99277.59;;;10.87;74.44
74310;BME280;62722;51.142;17.052;2022-09-17T01:28:22;99274.97;;;10.87;74.67
74310;BME280;62722;51.142;17.052;2022-09-17T01:31:18;99274.97;;;10.87;74.25
74310;BME280;62722;51.142;17.052;2022-09-17T01:33:56;99268.03;;;10.86;73.78
74310;BME280;62722;51.142;17.052;2022-09-17T01:36:41;99262.75;;;10.86;73.74
74310;BME280;62722;51.142;17.052;2022-09-17T01:39:19;99256.06;;;10.82;74.09
74310;BME280;62722;51.142;17.052;2022-09-17T01:41:52;99264.66;;;10.84;73.68
74310;BME280;62722;51.142;17.052;2022-09-17T01:44:28;99261.31;;;10.82;74.81
74310;BME280;62722;51.142;17.052;2022-09-17T01:47:02;99264.81;;;10.82;75.11
74310;BME280;62722;51.142;17.052;2022-09-17T01:49:35;99266.88;;;10.79;75.79
74310;BME280;62722;51.142;17.052;2022-09-17T01:52:06;99268.34;;;10.71;75.59
74310;BME280;62722;51.142;17.052;2022-09-17T01:54:38;99276.25;;;10.71;75.75
74310;BME280;62722;51.142;17.052;2022-09-17T01:57:09;99269.53;;;10.67;75.92
74310;BME280;62722;51.142;17.052;2022-09-17T01:59:41;99265.47;;;10.63;76.30
74310;BME280;62722;51.142;17.052;2022-09-17T02:02:14;99268.38;;;10.60;76.17
74310;BME280;62722;51.142;17.052;2022-09-17T02:04:47;99266.94;;;10.56;76.39
74310;BME280;62722;51.142;17.052;2022-09-17T02:07:17;99254.81;;;10.54;76.54
74310;BME280;62722;51.142;17.052;2022-09-17T02:10:12;99255.22;;;10.49;76.97
74310;BME280;62722;51.142;17.052;2022-09-17T02:12:44;99260.22;;;10.52;76.17
74310;BME280;62722;51.142;17.052;2022-09-17T02:15:19;99253.53;;;10.48;77.60
74310;BME280;62722;51.142;17.052;2022-09-17T02:17:51;99261.28;;;10.50;76.98
74310;BME280;62722;51.142;17.052;2022-09-17T02:20:25;99262.28;;;10.49;77.10
74310;BME280;62722;51.142;17.052;2022-09-17T02:22:55;99263.22;;;10.48;77.35
74310;BME280;62722;51.142;17.052;2022-09-17T02:25:27;99265.75;;;10.49;77.13
74310;BME280;62722;51.142;17.052;2022-09-17T02:28:01;99262.38;;;10.47;76.76
74310;BME280;62722;51.142;17.052;2022-09-17T02:30:30;99264.91;;;10.49;77.82
74310;BME280;62722;51.142;17.052;2022-09-17T02:33:00;99264.06;;;10.48;79.09
74310;BME280;62722;51.142;17.052;2022-09-17T02:35:30;99265.03;;;10.47;77.59
74310;BME280;62722;51.142;17.052;2022-09-17T02:37:59;99265.63;;;10.51;77.68
74310;BME280;62722;51.142;17.052;2022-09-17T02:40:28;99258.03;;;10.57;77.42
74310;BME280;62722;51.142;17.052;2022-09-17T02:43:06;99263.69;;;10.64;76.84
74310;BME280;62722;51.142;17.052;2022-09-17T02:45:44;99257.88;;;10.70;77.04
74310;BME280;62722;51.142;17.052;2022-09-17T02:48:39;99259.16;;;10.75;77.11
74310;BME280;62722;51.142;17.052;2022-09-17T02:51:19;99262.66;;;10.76;76.57
74310;BME280;62722;51.142;17.052;2022-09-17T02:53:52;99256.06;;;10.82;76.95
74310;BME280;62722;51.142;17.052;2022-09-17T02:56:29;99251.34;;;10.85;76.19
74310;BME280;62722;51.142;17.052;2022-09-17T02:59:07;99246.66;;;10.89;76.78
74310;BME280;62722;51.142;17.052;2022-09-17T03:01:41;99249.16;;;10.90;75.95
74310;BME280;62722;51.142;17.052;2022-09-17T03:04:14;99251.22;;;10.87;75.78
74310;BME280;62722;51.142;17.052;2022-09-17T03:06:44;99248.34;;;10.90;75.25
74310;BME280;62722;51.142;17.052;2022-09-17T03:09:12;99250.84;;;10.91;74.89
74310;BME280;62722;51.142;17.052;2022-09-17T03:11:40;99248.09;;;10.93;75.31
74310;BME280;62722;51.142;17.052;2022-09-17T03:14:08;99243.25;;;10.98;75.02
74310;BME280;62722;51.142;17.052;2022-09-17T03:16:35;99253.69;;;10.99;74.74
74310;BME280;62722;51.142;17.052;2022-09-17T03:19:02;99250.19;;;10.99;74.63
74310;BME280;62722;51.142;17.052;2022-09-17T03:21:31;99250.19;;;10.99;74.89
74310;BME280;62722;51.142;17.052;2022-09-17T03:23:58;99249.94;;;11.02;75.11
74310;BME280;62722;51.142;17.052;2022-09-17T03:26:25;99244.06;;;10.98;74.26
74310;BME280;62722;51.142;17.052;2022-09-17T03:28:53;99256.31;;;10.99;76.05
74310;BME280;62722;51.142;17.052;2022-09-17T03:31:20;99254.78;;;10.97;77.08
74310;BME280;62722;51.142;17.052;2022-09-17T03:33:52;99264.03;;;10.91;79.34
74310;BME280;62722;51.142;17.052;2022-09-17T03:36:34;99262.50;;;10.89;78.81
74310;BME280;62722;51.142;17.052;2022-09-17T03:39:01;99258.16;;;10.88;78.09
74310;BME280;62722;51.142;17.052;2022-09-17T03:41:28;99260.22;;;10.84;78.19
74310;BME280;62722;51.142;17.052;2022-09-17T03:43:56;99254.00;;;10.85;79.59
74310;BME280;62722;51.142;17.052;2022-09-17T03:46:23;99241.91;;;10.83;79.80
74310;BME280;62722;51.142;17.052;2022-09-17T03:48:52;99257.06;;;10.90;79.21
74310;BME280;62722;51.142;17.052;2022-09-17T03:51:19;99254.09;;;10.84;78.97
74310;BME280;62722;51.142;17.052;2022-09-17T03:53:47;99257.00;;;10.81;79.00
74310;BME280;62722;51.142;17.052;2022-09-17T03:56:15;99245.16;;;10.75;78.87
74310;BME280;62722;51.142;17.052;2022-09-17T03:58:42;99252.69;;;10.80;79.70
74310;BME280;62722;51.142;17.052;2022-09-17T04:01:09;99251.34;;;10.85;80.03
74310;BME280;62722;51.142;17.052;2022-09-17T04:03:37;99255.09;;;10.83;78.97
74310;BME280;62722;51.142;17.052;2022-09-17T04:06:04;99246.91;;;10.86;80.57
74310;BME280;62722;51.142;17.052;2022-09-17T04:08:31;99248.81;;;10.84;79.37
74310;BME280;62722;51.142;17.052;2022-09-17T04:11:00;99246.91;;;10.86;79.04
74310;BME280;62722;51.142;17.052;2022-09-17T04:13:27;99247.63;;;10.88;79.19
74310;BME280;62722;51.142;17.052;2022-09-17T04:15:54;99243.28;;;10.87;78.75
74310;BME280;62722;51.142;17.052;2022-09-17T04:18:21;99241.38;;;10.89;80.19
74310;BME280;62722;51.142;17.052;2022-09-17T04:20:48;99231.34;;;10.83;79.27
74310;BME280;62722;51.142;17.052;2022-09-17T04:23:15;99234.31;;;10.89;79.81
74310;BME280;62722;51.142;17.052;2022-09-17T04:25:42;99245.81;;;10.88;79.24
74310;BME280;62722;51.142;17.052;2022-09-17T04:28:11;99249.28;;;10.89;79.34
74310;BME280;62722;51.142;17.052;2022-09-17T04:30:38;99254.84;;;10.86;79.56
74310;BME280;62722;51.142;17.052;2022-09-17T04:33:07;99251.22;;;10.87;80.33
74310;BME280;62722;51.142;17.052;2022-09-17T04:35:36;99259.84;;;10.89;79.79
74310;BME280;62722;51.142;17.052;2022-09-17T04:38:03;99265.84;;;10.91;79.56
74310;BME280;62722;51.142;17.052;2022-09-17T04:40:30;99258.91;;;10.90;81.01
74310;BME280;62722;51.142;17.052;2022-09-17T04:42:58;99269.69;;;10.87;81.32
74310;BME280;62722;51.142;17.052;2022-09-17T04:45:29;99261.59;;;10.79;82.99
74310;BME280;62722;51.142;17.052;2022-09-17T04:47:58;99266.88;;;10.79;83.12
74310;BME280;62722;51.142;17.052;2022-09-17T04:50:25;99268.06;;;10.74;84.04
74310;BME280;62722;51.142;17.052;2022-09-17T04:52:52;99271.03;;;10.81;84.57
74310;BME280;62722;51.142;17.052;2022-09-17T04:55:19;99262.28;;;10.81;83.84
74310;BME280;62722;51.142;17.052;2022-09-17T04:57:46;99261.59;;;10.79;83.55
74310;BME280;62722;51.142;17.052;2022-09-17T05:00:14;99268.50;;;10.80;84.17
74310;BME280;62722;51.142;17.052;2022-09-17T05:02:46;99253.53;;;10.80;83.47
74310;BME280;62722;51.142;17.052;2022-09-17T05:05:15;99271.63;;;10.85;84.71
74310;BME280;62722;51.142;17.052;2022-09-17T05:07:42;99265.84;;;10.91;83.62
74310;BME280;62722;51.142;17.052;2022-09-17T05:10:11;99273.63;;;10.92;83.69
74310;BME280;62722;51.142;17.052;2022-09-17T05:12:38;99268.47;;;10.91;82.66
74310;BME280;62722;51.142;17.052;2022-09-17T05:15:06;99259.34;;;10.95;83.60
74310;BME280;62722;51.142;17.052;2022-09-17T05:17:34;99262.56;;;10.98;84.14
74310;BME280;62722;51.142;17.052;2022-09-17T05:20:03;99264.56;;;11.06;82.78
74310;BME280;62722;51.142;17.052;2022-09-17T05:22:30;99266.00;;;11.10;83.20
74310;BME280;62722;51.142;17.052;2022-09-17T05:24:57;99259.59;;;11.12;82.63
74310;BME280;62722;51.142;17.052;2022-09-17T05:27:26;99257.44;;;11.17;82.56
74310;BME280;62722;51.142;17.052;2022-09-17T05:29:53;99255.25;;;11.22;82.32
74310;BME280;62722;51.142;17.052;2022-09-17T05:32:20;99259.16;;;11.28;82.24
74310;BME280;62722;51.142;17.052;2022-09-17T05:34:47;99257.47;;;11.27;81.37
74310;BME280;62722;51.142;17.052;2022-09-17T05:37:16;99262.25;;;11.33;81.09
74310;BME280;62722;51.142;17.052;2022-09-17T05:39:43;99262.56;;;11.40;81.82
74310;BME280;62722;51.142;17.052;2022-09-17T05:42:11;99257.88;;;11.43;81.90
74310;BME280;62722;51.142;17.052;2022-09-17T05:44:40;99257.34;;;11.49;81.10
74310;BME280;62722;51.142;17.052;2022-09-17T05:47:07;99254.31;;;11.54;81.41
74310;BME280;62722;51.142;17.052;2022-09-17T05:49:34;99255.16;;;11.54;81.17
74310;BME280;62722;51.142;17.052;2022-09-17T05:52:01;99267.13;;;11.58;79.81
74310;BME280;62722;51.142;17.052;2022-09-17T05:54:30;99264.81;;;11.65;80.78
74310;BME280;62722;51.142;17.052;2022-09-17T05:56:57;99269.81;;;11.68;80.58
74310;BME280;62722;51.142;17.052;2022-09-17T05:59:24;99266.38;;;11.67;79.84
74310;BME280;62722;51.142;17.052;2022-09-17T06:01:52;99263.00;;;11.65;79.74
74310;BME280;62722;51.142;17.052;2022-09-17T06:04:19;99271.38;;;11.70;80.20
74310;BME280;62722;51.142;17.052;2022-09-17T06:06:47;99264.19;;;11.73;79.94
74310;BME280;62722;51.142;17.052;2022-09-17T06:09:14;99260.44;;;11.75;80.02
74310;BME280;62722;51.142;17.052;2022-09-17T06:11:42;99269.19;;;11.76;79.83
74310;BME280;62722;51.142;17.052;2022-09-17T06:14:10;99273.41;;;11.78;79.53
74310;BME280;62722;51.142;17.052;2022-09-17T06:16:37;99258.38;;;11.79;80.29
74310;BME280;62722;51.142;17.052;2022-09-17T06:19:04;99277.00;;;11.77;80.09
74310;BME280;62722;51.142;17.052;2022-09-17T06:21:31;99273.06;;;11.71;79.16
74310;BME280;62722;51.142;17.052;2022-09-17T06:23:59;99269.19;;;11.76;79.88
74310;BME280;62722;51.142;17.052;2022-09-17T06:26:29;99276.88;;;11.79;80.24
74310;BME280;62722;51.142;17.052;2022-09-17T06:28:59;99281.75;;;11.83;79.52
74310;BME280;62722;51.142;17.052;2022-09-17T06:31:27;99283.44;;;11.84;79.49
74310;BME280;62722;51.142;17.052;2022-09-17T06:33:55;99290.13;;;11.88;79.04
74310;BME280;62722;51.142;17.052;2022-09-17T06:36:22;99288.19;;;11.90;79.79
74310;BME280;62722;51.142;17.052;2022-09-17T06:38:49;99294.84;;;11.85;78.59
74310;BME280;62722;51.142;17.052;2022-09-17T06:41:16;99292.91;;;11.87;79.35
74310;BME280;62722;51.142;17.052;2022-09-17T06:43:43;99297.94;;;11.90;79.86
74310;BME280;62722;51.142;17.052;2022-09-17T06:46:12;99306.56;;;11.92;78.89
74310;BME280;62722;51.142;17.052;2022-09-17T06:48:39;99310.19;;;11.91;79.42
74310;BME280;62722;51.142;17.052;2022-09-17T06:51:09;99308.94;;;11.95;79.82
74310;BME280;62722;51.142;17.052;2022-09-17T06:53:37;99306.31;;;11.95;79.37
74310;BME280;62722;51.142;17.052;2022-09-17T06:56:06;99320.94;;;11.99;79.85
74310;BME280;62722;51.142;17.052;2022-09-17T06:58:33;99311.47;;;11.96;78.71
74310;BME280;62722;51.142;17.052;2022-09-17T07:01:02;99308.69;;;11.98;78.74
74310;BME280;62722;51.142;17.052;2022-09-17T07:03:32;99316.50;;;11.99;80.06
74310;BME280;62722;51.142;17.052;2022-09-17T07:05:59;99322.34;;;12.03;78.72
74310;BME280;62722;51.142;17.052;2022-09-17T07:08:27;99311.66;;;12.04;79.52
74310;BME280;62722;51.142;17.052;2022-09-17T07:10:55;99319.44;;;12.06;78.87
74310;BME280;62722;51.142;17.052;2022-09-17T07:13:23;99314.41;;;12.03;78.79
74310;BME280;62722;51.142;17.052;2022-09-17T07:15:54;99319.16;;;12.09;79.45
74310;BME280;62722;51.142;17.052;2022-09-17T07:18:22;99327.56;;;12.14;78.84
74310;BME280;62722;51.142;17.052;2022-09-17T07:20:55;99312.25;;;12.17;78.89
74310;BME280;62722;51.142;17.052;2022-09-17T07:23:23;99311.13;;;12.20;78.73
74310;BME280;62722;51.142;17.052;2022-09-17T07:25:51;99307.53;;;12.21;78.94
74310;BME280;62722;51.142;17.052;2022-09-17T07:28:18;99317.72;;;12.26;79.21
74310;BME280;62722;51.142;17.052;2022-09-17T07:30:46;99322.47;;;12.32;79.30
74310;BME280;62722;51.142;17.052;2022-09-17T07:33:14;99313.16;;;12.37;78.51
74310;BME280;62722;51.142;17.052;2022-09-17T07:35:41;99317.16;;;12.32;78.91
74310;BME280;62722;51.142;17.052;2022-09-17T07:38:10;99326.81;;;12.42;78.72
74310;BME280;62722;51.142;17.052;2022-09-17T07:40:37;99331.97;;;12.44;78.72
74310;BME280;62722;51.142;17.052;2022-09-17T07:43:04;99337.13;;;12.45;77.99
74310;BME280;62722;51.142;17.052;2022-09-17T07:45:31;99337.00;;;12.47;77.93
74310;BME280;62722;51.142;17.052;2022-09-17T07:47:58;99346.75;;;12.46;78.14
74310;BME280;62722;51.142;17.052;2022-09-17T07:50:26;99348.44;;;12.47;78.60
74310;BME280;62722;51.142;17.052;2022-09-17T07:52:53;99357.47;;;12.45;77.73
74310;BME280;62722;51.142;17.052;2022-09-17T07:55:22;99357.34;;;12.46;77.99
74310;BME280;62722;51.142;17.052;2022-09-17T07:57:52;99352.75;;;12.48;78.11
74310;BME280;62722;51.142;17.052;2022-09-17T08:00:19;99356.09;;;12.50;78.80
74310;BME280;62722;51.142;17.052;2022-09-17T08:02:52;99351.06;;;12.47;77.80
74310;BME280;62722;51.142;17.052;2022-09-17T08:05:19;99355.13;;;12.51;77.97
74310;BME280;62722;51.142;17.052;2022-09-17T08:07:48;99346.91;;;12.54;78.04
74310;BME280;62722;51.142;17.052;2022-09-17T08:10:16;99346.94;;;12.64;77.97
74310;BME280;62722;51.142;17.052;2022-09-17T08:12:47;99344.44;;;12.72;77.32
74310;BME280;62722;51.142;17.052;2022-09-17T08:15:15;99359.50;;;12.72;77.59
74310;BME280;62722;51.142;17.052;2022-09-17T08:17:43;99347.94;;;12.73;77.94
74310;BME280;62722;51.142;17.052;2022-09-17T08:20:10;99352.25;;;12.74;77.30
74310;BME280;62722;51.142;17.052;2022-09-17T08:22:38;99351.72;;;12.80;77.38
74310;BME280;62722;51.142;17.052;2022-09-17T08:25:06;99351.03;;;12.78;77.70
74310;BME280;62722;51.142;17.052;2022-09-17T08:27:34;99354.78;;;12.85;77.44
74310;BME280;62722;51.142;17.052;2022-09-17T08:30:06;99342.69;;;12.92;78.27
74310;BME280;62722;51.142;17.052;2022-09-17T08:32:33;99344.09;;;12.96;76.76
74310;BME280;62722;51.142;17.052;2022-09-17T08:35:01;99340.34;;;13.08;77.67
74310;BME280;62722;51.142;17.052;2022-09-17T08:37:28;99335.75;;;13.10;76.51
74310;BME280;62722;51.142;17.052;2022-09-17T08:39:56;99352.75;;;13.17;76.60
74310;BME280;62722;51.142;17.052;2022-09-17T08:42:28;99367.97;;;13.15;76.28
74310;BME280;62722;51.142;17.052;2022-09-17T08:44:58;99343.44;;;13.23;76.38
74310;BME280;62722;51.142;17.052;2022-09-17T08:47:32;99349.28;;;13.26;76.69
74310;BME280;62722;51.142;17.052;2022-09-17T08:50:03;99348.72;;;13.32;77.12
74310;BME280;62722;51.142;17.052;2022-09-17T08:52:55;99338.00;;;13.34;76.62
74310;BME280;62722;51.142;17.052;2022-09-17T08:55:35;99330.47;;;13.29;76.07
74310;BME280;62722;51.142;17.052;2022-09-17T08:58:29;99328.22;;;13.34;77.25
74310;BME280;62722;51.142;17.052;2022-09-17T09:01:10;99335.19;;;13.35;76.00
74310;BME280;62722;51.142;17.052;2022-09-17T09:03:55;99332.13;;;13.40;76.26
74310;BME280;62722;51.142;17.052;2022-09-17T09:06:30;99340.38;;;13.37;75.69
74310;BME280;62722;51.142;17.052;2022-09-17T09:09:00;99340.09;;;13.30;76.08
74310;BME280;62722;51.142;17.052;2022-09-17T09:11:30;99349.84;;;13.30;75.47
74310;BME280;62722;51.142;17.052;2022-09-17T09:14:00;99364.09;;;13.19;75.85
74310;BME280;62722;51.142;17.052;2022-09-17T09:16:32;99360.44;;;13.20;76.15
74310;BME280;62722;51.142;17.052;2022-09-17T09:19:10;99358.50;;;13.22;75.83
74310;BME280;62722;51.142;17.052;2022-09-17T09:21:49;99367.41;;;13.21;76.13
74310;BME280;62722;51.142;17.052;2022-09-17T09:24:22;99359.75;;;13.18;76.44
74310;BME280;62722;51.142;17.052;2022-09-17T09:26:57;99371.72;;;13.12;76.73
74310;BME280;62722;51.142;17.052;2022-09-17T09:29:35;99380.50;;;13.13;76.88
74310;BME280;62722;51.142;17.052;2022-09-17T09:32:17;99383.44;;;13.10;77.33
74310;BME280;62722;51.142;17.052;2022-09-17T09:34:49;99394.97;;;13.09;77.44
74310;BME280;62722;51.142;17.052;2022-09-17T09:37:22;99397.78;;;13.07;76.88
74310;BME280;62722;51.142;17.052;2022-09-17T09:39:51;99400.53;;;13.06;77.36
74310;BME280;62722;51.142;17.052;2022-09-17T09:42:27;99411.13;;;13.06;77.71
74310;BME280;62722;51.142;17.052;2022-09-17T09:44:57;99407.81;;;13.04;77.98
74310;BME280;62722;51.142;17.052;2022-09-17T09:47:36;99404.16;;;13.05;77.68
74310;BME280;62722;51.142;17.052;2022-09-17T09:50:20;99409.22;;;13.08;77.25
74310;BME280;62722;51.142;17.052;2022-09-17T09:52:59;99399.78;;;13.15;77.72
74310;BME280;62722;51.142;17.052;2022-09-17T09:55:41;99400.44;;;13.17;77.69
74310;BME280;62722;51.142;17.052;2022-09-17T09:58:22;99391.81;;;13.15;77.08
74310;BME280;62722;51.142;17.052;2022-09-17T10:00:55;99398.66;;;13.18;78.04
74310;BME280;62722;51.142;17.052;2022-09-17T10:03:25;99409.25;;;13.18;78.19
74310;BME280;62722;51.142;17.052;2022-09-17T10:05:56;99412.19;;;13.14;77.68
74310;BME280;62722;51.142;17.052;2022-09-17T10:08:24;99416.47;;;13.15;77.40
74310;BME280;62722;51.142;17.052;2022-09-17T10:10:57;99413.41;;;13.20;77.05
74310;BME280;62722;51.142;17.052;2022-09-17T10:13:27;99404.94;;;13.26;77.55
74310;BME280;62722;51.142;17.052;2022-09-17T10:15:55;99403.97;;;13.37;77.51
74310;BME280;62722;51.142;17.052;2022-09-17T10:18:23;99414.28;;;13.49;76.96
74310;BME280;62722;51.142;17.052;2022-09-17T10:20:55;99405.06;;;13.53;75.95
74310;BME280;62722;51.142;17.052;2022-09-17T10:23:23;99414.84;;;13.62;76.54
74310;BME280;62722;51.142;17.052;2022-09-17T10:25:51;99418.19;;;13.64;76.04
74310;BME280;62722;51.142;17.052;2022-09-17T10:28:27;99408.28;;;13.67;75.86
74310;BME280;62722;51.142;17.052;2022-09-17T10:30:56;99407.88;;;13.61;75.18
74310;BME280;62722;51.142;17.052;2022-09-17T10:33:26;99404.81;;;13.66;75.59
74310;BME280;62722;51.142;17.052;2022-09-17T10:36:00;99407.88;;;13.61;76.35
74310;BME280;62722;51.142;17.052;2022-09-17T10:38:32;99393.63;;;13.62;75.76
74310;BME280;62722;51.142;17.052;2022-09-17T10:41:14;99415.13;;;13.69;76.18
74310;BME280;62722;51.142;17.052;2022-09-17T10:43:41;99409.25;;;13.65;75.60
74310;BME280;62722;51.142;17.052;2022-09-17T10:46:14;99415.97;;;13.70;76.82
74310;BME280;62722;51.142;17.052;2022-09-17T10:48:48;99409.94;;;13.68;76.10
74310;BME280;62722;51.142;17.052;2022-09-17T10:51:23;99416.94;;;13.69;77.09
74310;BME280;62722;51.142;17.052;2022-09-17T10:56:56;99414.72;;;13.74;76.53
74310;BME280;62722;51.142;17.052;2022-09-17T10:59:44;99409.53;;;13.82;76.87
74310;BME280;62722;51.142;17.052;2022-09-17T11:02:38;99396.66;;;13.87;75.85
74310;BME280;62722;51.142;17.052;2022-09-17T11:05:27;99407.25;;;14.06;76.18
74310;BME280;62722;51.142;17.052;2022-09-17T11:08:07;99384.88;;;14.08;75.22
74310;BME280;62722;51.142;17.052;2022-09-17T11:10:42;99393.22;;;14.23;75.18
74310;BME280;62722;51.142;17.052;2022-09-17T11:13:20;99376.03;;;14.27;73.86
74310;BME280;62722;51.142;17.052;2022-09-17T11:16:02;99381.50;;;14.35;73.66
74310;BME280;62722;51.142;17.052;2022-09-17T11:18:35;99374.63;;;14.42;74.32
74310;BME280;62722;51.142;17.052;2022-09-17T11:21:22;99368.22;;;14.35;72.78
74310;BME280;62722;51.142;17.052;2022-09-17T11:27:21;99377.03;;;14.36;73.33
74310;BME280;62722;51.142;17.052;2022-09-17T11:30:03;99367.50;;;14.33;73.99
74310;BME280;62722;51.142;17.052;2022-09-17T11:32:52;99369.44;;;14.31;73.27
74310;BME280;62722;51.142;17.052;2022-09-17T11:35:25;99374.38;;;14.26;74.15
74310;BME280;62722;51.142;17.052;2022-09-17T11:37:57;99361.38;;;14.23;72.78
74310;BME280;62722;51.142;17.052;2022-09-17T11:40:34;99374.22;;;14.28;72.88
74310;BME280;62722;51.142;17.052;2022-09-17T11:43:15;99360.66;;;14.40;71.99
74310;BME280;62722;51.142;17.052;2022-09-17T11:45:55;99345.13;;;14.45;70.56
74310;BME280;62722;51.142;17.052;2022-09-17T11:48:31;99351.97;;;14.48;69.41
74310;BME280;62722;51.142;17.052;2022-09-17T11:51:06;99343.28;;;14.46;69.09
74310;BME280;62722;51.142;17.052;2022-09-17T11:53:41;99340.63;;;14.55;69.48
74310;BME280;62722;51.142;17.052;2022-09-17T11:56:14;99344.47;;;14.61;69.98
74310;BME280;62722;51.142;17.052;2022-09-17T11:58:50;99333.31;;;14.57;68.69
74310;BME280;62722;51.142;17.052;2022-09-17T12:01:25;99336.94;;;14.56;70.33
74310;BME280;62722;51.142;17.052;2022-09-17T12:04:04;99334.56;;;14.63;69.30
74310;BME280;62722;51.142;17.052;2022-09-17T12:06:43;99339.66;;;14.74;70.20
74310;BME280;62722;51.142;17.052;2022-09-17T12:09:17;99335.03;;;14.76;69.49
74310;BME280;62722;51.142;17.052;2022-09-17T12:11:51;99334.88;;;14.78;69.11
74310;BME280;62722;51.142;17.052;2022-09-17T12:14:25;99336.00;;;14.75;68.75
74310;BME280;62722;51.142;17.052;2022-09-17T12:16:56;99322.06;;;14.73;69.88
74310;BME280;62722;51.142;17.052;2022-09-17T12:19:30;99328.88;;;14.76;69.12
74310;BME280;62722;51.142;17.052;2022-09-17T12:22:03;99320.88;;;14.85;69.48
74310;BME280;62722;51.142;17.052;2022-09-17T12:24:32;99321.41;;;14.89;69.64
74310;BME280;62722;51.142;17.052;2022-09-17T12:27:11;99304.63;;;14.88;71.09
74310;BME280;62722;51.142;17.052;2022-09-17T12:30:04;99310.06;;;14.87;71.54
74310;BME280;62722;51.142;17.052;2022-09-17T12:32:56;99316.34;;;14.86;71.04
74310;BME280;62722;51.142;17.052;2022-09-17T12:35:49;99318.03;;;14.87;71.73
74310;BME280;62722;51.142;17.052;2022-09-17T12:38:37;99316.34;;;14.86;71.44
74310;BME280;62722;51.142;17.052;2022-09-17T12:41:15;99317.66;;;14.82;70.65
74310;BME280;62722;51.142;17.052;2022-09-17T12:43:54;99320.34;;;14.82;68.85
74310;BME280;62722;51.142;17.052;2022-09-17T12:46:38;99318.25;;;14.76;67.93
74310;BME280;62722;51.142;17.052;2022-09-17T12:49:42;99308.25;;;14.70;68.89
74310;BME280;62722;51.142;17.052;2022-09-17T12:52:19;99303.47;;;14.73;70.56
74310;BME280;62722;51.142;17.052;2022-09-17T12:55:07;99297.00;;;14.76;69.83
74310;BME280;62722;51.142;17.052;2022-09-17T12:57:44;99295.72;;;14.80;70.74
74310;BME280;62722;51.142;17.052;2022-09-17T13:00:16;99283.94;;;14.82;69.79
74310;BME280;62722;51.142;17.052;2022-09-17T13:02:50;99276.00;;;15.00;70.66
74310;BME280;62722;51.142;17.052;2022-09-17T13:08:38;99266.03;;;15.20;69.86
74310;BME280;62722;51.142;17.052;2022-09-17T13:14:12;99252.84;;;15.10;69.07
74310;BME280;62722;51.142;17.052;2022-09-17T13:16:46;99265.72;;;15.23;70.67
74310;BME280;62722;51.142;17.052;2022-09-17T13:19:25;99256.69;;;15.33;69.64
74310;BME280;62722;51.142;17.052;2022-09-17T13:21:59;99267.34;;;15.41;66.50
74310;BME280;62722;51.142;17.052;2022-09-17T13:24:29;99252.84;;;15.53;68.18
74310;BME280;62722;51.142;17.052;2022-09-17T13:27:00;99260.88;;;15.62;66.59
74310;BME280;62722;51.142;17.052;2022-09-17T13:29:58;99264.22;;;15.64;65.00